createdAt,value
2022-11-06T00:00:16.203Z,1.63
2022-11-06T00:02:43.099Z,1.40
2022-11-06T00:05:28.325Z,1.70
2022-11-06T00:07:55.087Z,1.42
2022-11-06T00:10:22.057Z,1.30
2022-11-06T00:12:49.064Z,1.30
2022-11-06T00:15:16.274Z,1.20
2022-11-06T00:17:43.085Z,1.27
2022-11-06T00:20:10.837Z,0.95
2022-11-06T00:22:38.146Z,1.00
2022-11-06T00:25:05.625Z,0.90
2022-11-06T00:27:32.377Z,0.85
2022-11-06T00:29:59.117Z,0.90
2022-11-06T00:32:25.845Z,0.98
2022-11-06T00:34:52.613Z,0.90
2022-11-06T00:37:19.361Z,0.70
2022-11-06T00:39:46.139Z,0.82
2022-11-06T00:42:12.917Z,0.77
2022-11-06T00:44:39.689Z,0.70
2022-11-06T00:47:06.538Z,0.60
2022-11-06T00:49:33.310Z,0.50
2022-11-06T00:52:01.190Z,0.50
2022-11-06T00:54:27.940Z,0.50
2022-11-06T00:56:55.257Z,0.60
2022-11-06T00:59:22.106Z,0.60
2022-11-06T01:01:48.956Z,0.70
2022-11-06T01:04:17.635Z,0.80
2022-11-06T01:06:46.211Z,0.68
2022-11-06T01:09:14.029Z,0.70
2022-11-06T01:12:11.146Z,0.50
2022-11-06T01:14:29.430Z,0.52
2022-11-06T01:16:56.593Z,0.70
2022-11-06T01:19:23.466Z,0.70
2022-11-06T01:21:52.756Z,0.70
2022-11-06T01:24:21.270Z,0.55
2022-11-06T01:27:12.051Z,0.73
2022-11-06T01:29:34.845Z,0.55
2022-11-06T01:32:01.905Z,0.80
2022-11-06T01:34:28.770Z,0.50
2022-11-06T01:36:55.539Z,0.43
2022-11-06T01:39:22.294Z,0.40
2022-11-06T01:41:50.037Z,0.40
2022-11-06T01:44:35.324Z,0.50
2022-11-06T01:47:03.954Z,0.68
2022-11-06T01:49:37.372Z,0.63
2022-11-06T01:52:08.629Z,0.60
2022-11-06T01:54:36.567Z,0.32
2022-11-06T01:57:04.723Z,0.38
2022-11-06T01:59:32.876Z,0.50
2022-11-06T02:01:59.814Z,0.50
2022-11-06T02:04:28.613Z,0.40
2022-11-06T02:06:56.034Z,0.30
2022-11-06T02:09:24.182Z,0.40
2022-11-06T02:12:02.869Z,0.50
2022-11-06T02:14:59.035Z,0.30
2022-11-06T02:17:34.913Z,0.50
2022-11-06T02:20:05.438Z,0.50
2022-11-06T02:22:35.286Z,0.45
2022-11-06T02:25:04.887Z,0.57
2022-11-06T02:27:32.906Z,0.52
2022-11-06T02:30:07.523Z,0.50
2022-11-06T02:32:37.300Z,0.50
2022-11-06T02:35:11.001Z,0.50
2022-11-06T02:37:38.934Z,0.52
2022-11-06T02:40:07.644Z,0.60
2022-11-06T02:42:37.269Z,0.60
2022-11-06T02:45:04.892Z,0.50
2022-11-06T02:47:32.256Z,0.55
2022-11-06T02:50:05.095Z,0.55
2022-11-06T02:52:34.273Z,0.55
2022-11-06T02:55:24.095Z,0.40
2022-11-06T02:57:54.592Z,0.40
2022-11-06T03:00:22.284Z,0.40
2022-11-06T03:02:52.742Z,0.50
2022-11-06T03:05:26.201Z,0.22
2022-11-06T03:07:52.952Z,0.38
2022-11-06T03:10:19.869Z,0.30
2022-11-06T03:12:49.536Z,0.10
2022-11-06T03:15:16.297Z,0.25
2022-11-06T03:17:57.730Z,0.10
2022-11-06T03:20:29.924Z,0.22
2022-11-06T03:23:16.957Z,0.32
2022-11-06T03:25:49.088Z,0.30
2022-11-06T03:28:16.285Z,0.30
2022-11-06T03:30:47.686Z,0.10
2022-11-06T03:33:28.619Z,0.20
2022-11-06T03:36:00.302Z,0.28
2022-11-06T03:38:29.692Z,0.30
2022-11-06T03:41:08.473Z,0.30
2022-11-06T03:43:36.822Z,0.20
2022-11-06T03:46:06.550Z,0.20
2022-11-06T03:48:45.386Z,0.10
2022-11-06T03:51:15.060Z,0.30
2022-11-06T03:53:46.433Z,0.20
2022-11-06T03:58:43.181Z,0.25
2022-11-06T04:01:11.009Z,0.47
2022-11-06T04:03:57.994Z,0.20
2022-11-06T04:06:34.587Z,0.40
2022-11-06T04:09:22.689Z,0.20
2022-11-06T04:12:08.828Z,0.20
2022-11-06T04:14:37.034Z,0.20
2022-11-06T04:17:06.737Z,0.30
2022-11-06T04:19:33.527Z,0.88
2022-11-06T04:22:09.993Z,0.73
2022-11-06T04:25:01.870Z,0.50
2022-11-06T04:27:41.051Z,0.60
2022-11-06T04:30:12.030Z,0.35
2022-11-06T04:33:00.250Z,0.50
2022-11-06T04:35:48.434Z,0.70
2022-11-06T04:38:24.042Z,0.50
2022-11-06T04:40:53.733Z,0.50
2022-11-06T04:43:25.711Z,0.40
2022-11-06T04:45:54.145Z,0.70
2022-11-06T04:48:21.313Z,0.60
2022-11-06T04:50:50.027Z,0.63
2022-11-06T04:53:17.687Z,0.70
2022-11-06T04:55:46.417Z,0.43
2022-11-06T04:58:13.885Z,0.43
2022-11-06T05:00:42.807Z,0.60
2022-11-06T05:03:09.589Z,0.75
2022-11-06T05:05:36.396Z,0.63
2022-11-06T05:08:03.462Z,0.60
2022-11-06T05:10:30.261Z,0.50
2022-11-06T05:12:57.038Z,0.52
2022-11-06T05:15:23.809Z,0.70
2022-11-06T05:17:50.546Z,1.13
2022-11-06T05:20:17.315Z,2.10
2022-11-06T05:23:00.677Z,1.50
2022-11-06T05:25:29.430Z,1.50
2022-11-06T05:27:56.332Z,0.80
2022-11-06T05:30:23.961Z,0.80
2022-11-06T05:32:50.783Z,0.77
2022-11-06T05:35:17.850Z,0.82
2022-11-06T05:37:44.903Z,0.77
2022-11-06T05:40:12.192Z,0.70
2022-11-06T05:42:43.317Z,0.50
2022-11-06T05:45:10.757Z,0.68
2022-11-06T05:47:39.925Z,0.50
2022-11-06T05:50:06.952Z,0.40
2022-11-06T05:52:34.554Z,0.50
2022-11-06T05:55:01.418Z,0.40
2022-11-06T05:57:28.197Z,0.30
2022-11-06T05:59:54.987Z,0.35
2022-11-06T06:02:21.877Z,0.55
2022-11-06T06:04:48.846Z,0.30
2022-11-06T06:07:15.617Z,0.30
2022-11-06T06:09:42.493Z,0.40
2022-11-06T06:12:11.755Z,0.30
2022-11-06T06:14:38.777Z,0.30
2022-11-06T06:17:05.783Z,0.10
2022-11-06T06:19:32.598Z,0.30
2022-11-06T06:21:59.394Z,0.30
2022-11-06T06:24:26.233Z,0.20
2022-11-06T06:26:53.079Z,0.30
2022-11-06T06:29:19.879Z,0.22
2022-11-06T06:31:46.637Z,0.20
2022-11-06T06:34:13.370Z,0.40
2022-11-06T06:36:40.208Z,0.20
2022-11-06T06:39:07.038Z,0.30
2022-11-06T06:41:33.792Z,0.20
2022-11-06T06:44:00.602Z,0.20
2022-11-06T06:46:27.422Z,0.10
2022-11-06T06:48:54.237Z,0.20
2022-11-06T06:51:23.979Z,0.35
2022-11-06T06:53:51.219Z,0.20
2022-11-06T06:56:18.082Z,0.30
2022-11-06T06:58:44.870Z,0.30
2022-11-06T07:01:11.809Z,0.60
2022-11-06T07:03:38.728Z,1.40
2022-11-06T07:06:06.217Z,0.55
2022-11-06T07:08:33.541Z,0.50
2022-11-06T07:11:01.021Z,0.50
2022-11-06T07:13:32.808Z,0.88
2022-11-06T07:16:03.595Z,0.93
2022-11-06T07:18:30.683Z,1.00
2022-11-06T07:20:57.489Z,0.80
2022-11-06T07:23:24.278Z,0.90
2022-11-06T07:25:56.873Z,1.05
2022-11-06T07:28:23.679Z,0.70
2022-11-06T07:30:50.494Z,0.65
2022-11-06T07:33:17.330Z,1.00
2022-11-06T07:35:44.200Z,0.55
2022-11-06T07:38:11.296Z,0.60
2022-11-06T07:40:38.277Z,0.70
2022-11-06T07:43:05.716Z,0.63
2022-11-06T07:45:32.817Z,0.63
2022-11-06T07:47:59.959Z,0.70
2022-11-06T07:50:27.311Z,0.63
2022-11-06T07:52:54.424Z,0.80
2022-11-06T07:55:21.262Z,0.68
2022-11-06T07:57:48.135Z,0.50
2022-11-06T08:00:15.315Z,0.55
2022-11-06T08:02:42.278Z,0.63
2022-11-06T08:05:09.194Z,0.60
2022-11-06T08:07:36.098Z,1.15
2022-11-06T08:10:03.033Z,1.33
2022-11-06T08:12:29.779Z,0.95
2022-11-06T08:14:56.585Z,0.90
2022-11-06T08:17:23.447Z,0.70
2022-11-06T08:19:50.226Z,0.73
2022-11-06T08:22:17.039Z,0.90
2022-11-06T08:24:43.827Z,0.80
2022-11-06T08:27:10.860Z,0.70
2022-11-06T08:29:41.323Z,0.80
2022-11-06T08:32:08.876Z,0.80
2022-11-06T08:34:36.221Z,0.82
2022-11-06T08:37:03.040Z,0.80
2022-11-06T08:39:29.955Z,0.70
2022-11-06T08:41:56.727Z,0.68
2022-11-06T08:44:24.406Z,0.90
2022-11-06T08:46:52.223Z,0.50
2022-11-06T08:49:19.347Z,0.60
2022-11-06T08:51:46.159Z,1.02
2022-11-06T08:54:13.185Z,0.50
2022-11-06T08:56:40.019Z,0.55
2022-11-06T08:59:06.817Z,0.60
2022-11-06T09:01:33.781Z,0.60
2022-11-06T09:04:00.703Z,0.52
2022-11-06T09:06:27.551Z,0.73
2022-11-06T09:08:54.401Z,0.60
2022-11-06T09:11:21.137Z,0.60
2022-11-06T09:13:47.981Z,0.60
2022-11-06T09:16:16.223Z,0.70
2022-11-06T09:18:43.503Z,0.68
2022-11-06T09:21:10.504Z,0.63
2022-11-06T09:23:37.482Z,0.50
2022-11-06T09:26:04.290Z,0.30
2022-11-06T09:28:31.113Z,0.40
2022-11-06T09:30:58.283Z,0.30
2022-11-06T09:33:25.091Z,0.43
2022-11-06T09:35:52.807Z,0.50
2022-11-06T09:38:19.641Z,0.70
2022-11-06T09:40:57.964Z,0.90
2022-11-06T09:46:28.029Z,0.50
2022-11-06T09:49:06.916Z,0.70
2022-11-06T09:51:38.280Z,0.43
2022-11-06T09:54:05.255Z,0.45
2022-11-06T09:56:33.816Z,0.52
2022-11-06T09:59:03.572Z,0.40
2022-11-06T10:01:38.413Z,0.45
2022-11-06T10:04:06.042Z,0.50
2022-11-06T10:06:32.848Z,0.45
2022-11-06T10:09:06.078Z,0.50
2022-11-06T10:11:51.170Z,0.43
2022-11-06T10:14:30.351Z,0.80
2022-11-06T10:17:04.096Z,0.40
2022-11-06T10:19:41.530Z,0.32
2022-11-06T10:22:13.139Z,0.60
2022-11-06T10:24:46.018Z,0.60
2022-11-06T10:27:15.898Z,0.60
2022-11-06T10:29:45.765Z,0.50
2022-11-06T10:32:15.253Z,0.47
2022-11-06T10:34:45.031Z,0.60
2022-11-06T10:37:27.725Z,0.25
2022-11-06T10:39:56.714Z,0.60
2022-11-06T10:42:37.591Z,0.82
2022-11-06T10:45:15.620Z,0.70
2022-11-06T10:47:48.593Z,0.90
2022-11-06T10:50:16.480Z,0.93
2022-11-06T10:52:48.956Z,1.20
2022-11-06T10:55:34.735Z,1.05
2022-11-06T10:58:03.368Z,1.23
2022-11-06T11:00:31.501Z,1.08
2022-11-06T11:02:59.802Z,1.23
2022-11-06T11:05:27.755Z,1.17
2022-11-06T11:07:55.207Z,1.50
2022-11-06T11:10:35.728Z,1.38
2022-11-06T11:13:08.068Z,1.40
2022-11-06T11:15:46.057Z,1.38
2022-11-06T11:18:13.325Z,1.27
2022-11-06T11:20:41.925Z,1.50
2022-11-06T11:23:14.723Z,1.65
2022-11-06T11:25:43.582Z,1.85
2022-11-06T11:28:30.317Z,1.50
2022-11-06T11:31:02.991Z,1.98
2022-11-06T11:33:29.972Z,1.70
2022-11-06T11:35:56.880Z,2.13
2022-11-06T11:38:26.034Z,2.33
2022-11-06T11:41:05.415Z,2.28
2022-11-06T11:43:32.993Z,2.00
2022-11-06T11:46:05.777Z,2.30
2022-11-06T11:48:45.883Z,2.60
2022-11-06T11:51:33.185Z,3.25
2022-11-06T11:54:15.532Z,4.28
2022-11-06T11:57:04.061Z,5.40
2022-11-06T11:59:31.835Z,4.25
2022-11-06T12:02:02.455Z,3.50
2022-11-06T12:04:49.798Z,2.90
2022-11-06T12:07:30.174Z,2.17
2022-11-06T12:09:57.141Z,2.45
2022-11-06T12:12:25.608Z,2.58
2022-11-06T12:15:11.221Z,2.40
2022-11-06T12:17:39.697Z,2.50
2022-11-06T12:20:10.833Z,2.28
2022-11-06T12:22:39.542Z,2.08
2022-11-06T12:25:11.759Z,1.95
2022-11-06T12:27:41.237Z,1.58
2022-11-06T12:30:08.313Z,1.85
2022-11-06T12:32:48.886Z,1.90
2022-11-06T12:35:20.607Z,2.45
2022-11-06T12:38:06.511Z,1.85
2022-11-06T12:40:40.479Z,1.85
2022-11-06T12:43:15.054Z,1.95
2022-11-06T12:45:44.667Z,1.85
2022-11-06T12:48:30.237Z,1.88
2022-11-06T12:51:02.149Z,1.80
2022-11-06T12:53:28.845Z,2.00
2022-11-06T12:55:59.314Z,1.80
2022-11-06T12:58:41.789Z,1.80
2022-11-06T13:01:41.171Z,1.70
2022-11-06T13:04:07.969Z,1.23
2022-11-06T13:07:01.086Z,1.30
2022-11-06T13:09:27.836Z,1.83
2022-11-06T13:12:00.842Z,1.58
2022-11-06T13:14:45.961Z,1.45
2022-11-06T13:17:15.694Z,1.30
2022-11-06T13:19:48.450Z,1.33
2022-11-06T13:22:27.217Z,1.00
2022-11-06T13:24:59.067Z,1.42
2022-11-06T13:27:51.886Z,1.92
2022-11-06T13:30:22.782Z,1.50
2022-11-06T13:33:01.231Z,1.45
2022-11-06T13:35:28.284Z,1.30
2022-11-06T13:37:56.280Z,1.08
2022-11-06T13:40:38.821Z,1.10
2022-11-06T13:43:07.999Z,1.20
2022-11-06T13:45:43.294Z,1.00
2022-11-06T13:48:33.116Z,0.80
2022-11-06T13:51:13.947Z,0.82
2022-11-06T13:53:46.692Z,1.25
2022-11-06T13:56:31.958Z,0.98
2022-11-06T13:59:07.170Z,0.70
2022-11-06T14:01:39.909Z,0.85
2022-11-06T14:04:22.003Z,0.70
2022-11-06T14:06:51.677Z,0.88
2022-11-06T14:09:22.339Z,0.70
2022-11-06T14:11:57.027Z,0.80
2022-11-06T14:14:23.754Z,0.85
2022-11-06T14:17:10.269Z,0.80
2022-11-06T14:19:37.220Z,1.10
2022-11-06T14:22:09.821Z,0.70
2022-11-06T14:24:37.386Z,0.60
2022-11-06T14:27:06.870Z,0.70
2022-11-06T14:29:33.569Z,0.93
2022-11-06T14:32:06.603Z,1.00
2022-11-06T14:34:34.037Z,0.75
2022-11-06T14:37:19.037Z,0.63
2022-11-06T14:39:54.597Z,0.90
2022-11-06T14:42:27.301Z,1.10
2022-11-06T14:44:57.498Z,1.08
2022-11-06T14:47:27.542Z,1.23
2022-11-06T14:49:55.222Z,0.88
2022-11-06T14:52:23.995Z,0.70
2022-11-06T14:55:00.692Z,0.70
2022-11-06T14:57:36.225Z,0.52
2022-11-06T15:00:03.103Z,0.60
2022-11-06T15:02:30.766Z,0.82
2022-11-06T15:05:01.967Z,0.52
2022-11-06T15:08:03.113Z,0.60
2022-11-06T15:10:40.278Z,0.80
2022-11-06T15:13:11.250Z,0.65
2022-11-06T15:15:42.281Z,1.10
2022-11-06T15:18:11.695Z,1.00
2022-11-06T15:20:39.260Z,1.13
2022-11-06T15:23:38.417Z,1.20
2022-11-06T15:26:07.567Z,1.42
2022-11-06T15:28:39.771Z,1.20
2022-11-06T15:31:08.282Z,1.15
2022-11-06T15:33:55.928Z,1.40
2022-11-06T15:36:23.437Z,1.08
2022-11-06T15:38:50.249Z,0.98
2022-11-06T15:41:26.605Z,0.93
2022-11-06T15:43:57.548Z,1.85
2022-11-06T15:46:28.336Z,1.42
2022-11-06T15:49:08.517Z,1.00
2022-11-06T15:51:38.394Z,0.75
2022-11-06T15:54:05.218Z,0.80
2022-11-06T15:56:33.908Z,0.90
2022-11-06T15:59:06.593Z,1.00
2022-11-06T16:01:34.446Z,0.70
2022-11-06T16:04:03.314Z,0.70
2022-11-06T16:06:31.159Z,0.90
2022-11-06T16:08:58.477Z,1.30
2022-11-06T16:11:25.367Z,0.90
2022-11-06T16:13:52.188Z,1.00
2022-11-06T16:16:31.910Z,0.95
2022-11-06T16:18:58.749Z,0.82
2022-11-06T16:21:28.018Z,0.95
2022-11-06T16:23:57.386Z,0.98
2022-11-06T16:26:35.550Z,1.30
2022-11-06T16:29:03.594Z,1.00
2022-11-06T16:31:31.141Z,1.15
2022-11-06T16:34:02.678Z,1.08
2022-11-06T16:39:19.478Z,1.02
2022-11-06T16:41:58.525Z,1.50
2022-11-06T16:44:31.599Z,1.17
2022-11-06T16:47:04.832Z,1.13
2022-11-06T16:49:35.505Z,1.40
2022-11-06T16:52:15.461Z,0.90
2022-11-06T16:54:49.509Z,1.00
2022-11-06T16:57:18.037Z,0.82
2022-11-06T16:59:45.705Z,0.80
2022-11-06T17:02:21.318Z,1.10
2022-11-06T17:04:48.306Z,1.10
2022-11-06T17:07:19.984Z,0.90
2022-11-06T17:09:47.156Z,1.15
2022-11-06T17:12:13.911Z,1.00
2022-11-06T17:14:44.326Z,1.30
2022-11-06T17:17:32.189Z,1.15
2022-11-06T17:20:00.244Z,1.23
2022-11-06T17:22:27.036Z,1.13
2022-11-06T17:24:53.823Z,1.17
2022-11-06T17:27:20.584Z,1.08
2022-11-06T17:29:47.367Z,1.35
2022-11-06T17:32:14.132Z,1.23
2022-11-06T17:34:40.950Z,1.23
2022-11-06T17:37:10.787Z,1.40
2022-11-06T17:39:37.581Z,1.10
2022-11-06T17:42:04.321Z,1.42
2022-11-06T17:44:31.078Z,1.67
2022-11-06T17:46:58.964Z,1.35
2022-11-06T17:49:25.768Z,1.70
2022-11-06T17:52:00.249Z,1.25
2022-11-06T17:54:36.539Z,1.40
2022-11-06T17:57:05.233Z,1.38
2022-11-06T17:59:32.190Z,1.90
2022-11-06T18:01:59.403Z,1.10
2022-11-06T18:04:27.841Z,1.40
2022-11-06T18:06:54.838Z,1.35
2022-11-06T18:09:22.089Z,1.23
2022-11-06T18:11:49.803Z,1.20
2022-11-06T18:14:16.600Z,1.30
2022-11-06T18:16:44.189Z,1.30
2022-11-06T18:19:12.078Z,1.67
2022-11-06T18:21:38.985Z,1.52
2022-11-06T18:24:06.009Z,1.63
2022-11-06T18:26:32.921Z,2.47
2022-11-06T18:29:00.013Z,1.55
2022-11-06T18:31:26.817Z,1.77
2022-11-06T18:33:53.632Z,1.42
2022-11-06T18:36:20.419Z,1.80
2022-11-06T18:38:47.167Z,1.60
2022-11-06T18:41:15.316Z,1.63
2022-11-06T18:43:42.562Z,1.45
2022-11-06T18:46:10.918Z,1.90
2022-11-06T18:48:38.216Z,1.73
2022-11-06T18:51:08.909Z,1.65
2022-11-06T18:53:36.289Z,1.98
2022-11-06T18:56:03.708Z,1.70
2022-11-06T18:58:30.506Z,1.98
2022-11-06T19:01:01.626Z,2.65
2022-11-06T19:03:28.778Z,1.98
2022-11-06T19:05:55.917Z,1.80
2022-11-06T19:08:22.722Z,1.77
2022-11-06T19:10:49.497Z,2.03
2022-11-06T19:13:17.455Z,2.17
2022-11-06T19:15:45.011Z,2.10
2022-11-06T19:18:12.903Z,2.72
2022-11-06T19:20:40.922Z,1.92
2022-11-06T19:23:08.041Z,2.63
2022-11-06T19:25:34.980Z,2.00
2022-11-06T19:28:03.017Z,2.63
2022-11-06T19:30:30.285Z,2.70
2022-11-06T19:32:57.081Z,4.68
2022-11-06T19:35:24.164Z,7.70
2022-11-06T19:37:50.939Z,11.10
2022-11-06T19:40:17.748Z,10.60
2022-11-06T19:42:44.531Z,11.20
2022-11-06T19:45:11.650Z,10.63
2022-11-06T19:47:39.982Z,6.32
2022-11-06T19:50:07.067Z,6.22
2022-11-06T19:52:41.733Z,4.13
2022-11-06T19:55:25.985Z,3.20
2022-11-06T19:57:54.854Z,2.78
2022-11-06T20:00:26.364Z,2.63
2022-11-06T20:02:53.105Z,2.10
2022-11-06T20:05:19.873Z,2.58
2022-11-06T20:07:46.842Z,2.65
2022-11-06T20:10:18.230Z,2.03
2022-11-06T20:12:45.146Z,2.22
2022-11-06T20:15:15.995Z,2.15
2022-11-06T20:17:45.526Z,2.03
2022-11-06T20:20:12.357Z,1.80
2022-11-06T20:22:39.111Z,1.70
2022-11-06T20:25:06.143Z,1.92
2022-11-06T20:27:32.988Z,2.47
2022-11-06T20:29:59.761Z,2.20
2022-11-06T20:32:26.548Z,1.85
2022-11-06T20:34:53.368Z,1.90
2022-11-06T20:37:20.148Z,2.05
2022-11-06T20:39:46.913Z,1.75
2022-11-06T20:42:13.729Z,2.17
2022-11-06T20:44:40.599Z,2.42
2022-11-06T20:47:07.384Z,1.90
2022-11-06T20:49:34.209Z,1.98
2022-11-06T20:52:13.665Z,1.70
2022-11-06T20:54:45.567Z,1.60
2022-11-06T20:57:14.785Z,1.75
2022-11-06T20:59:41.623Z,1.83
2022-11-06T21:02:10.800Z,1.75
2022-11-06T21:04:37.884Z,1.48
2022-11-06T21:07:04.705Z,1.30
2022-11-06T21:09:31.448Z,1.40
2022-11-06T21:11:58.238Z,1.30
2022-11-06T21:14:25.596Z,1.30
2022-11-06T21:16:53.248Z,1.70
2022-11-06T21:19:20.009Z,1.60
2022-11-06T21:21:47.089Z,1.63
2022-11-06T21:24:13.883Z,1.45
2022-11-06T21:26:40.646Z,1.58
2022-11-06T21:29:09.201Z,1.45
2022-11-06T21:31:43.987Z,1.50
2022-11-06T21:34:14.214Z,1.90
2022-11-06T21:36:40.955Z,1.50
2022-11-06T21:39:09.260Z,1.50
2022-11-06T21:41:38.739Z,1.45
2022-11-06T21:44:06.285Z,1.58
2022-11-06T21:46:33.182Z,1.45
2022-11-06T21:49:00.028Z,1.63
2022-11-06T21:51:28.506Z,1.77
2022-11-06T21:54:14.457Z,2.00
2022-11-06T21:56:41.660Z,1.52
2022-11-06T21:59:09.658Z,2.00
2022-11-06T22:01:37.044Z,1.90
2022-11-06T22:04:04.944Z,2.13
2022-11-06T22:06:31.886Z,1.88
2022-11-06T22:09:00.065Z,2.10
2022-11-06T22:11:28.084Z,1.48
2022-11-06T22:13:55.504Z,1.85
2022-11-06T22:16:26.196Z,1.92
2022-11-06T22:18:53.037Z,1.30
2022-11-06T22:21:24.133Z,2.15
2022-11-06T22:23:51.254Z,2.35
2022-11-06T22:26:19.360Z,1.70
2022-11-06T22:28:46.157Z,1.80
2022-11-06T22:31:13.019Z,1.75
2022-11-06T22:33:39.861Z,1.85
2022-11-06T22:36:11.038Z,1.50
2022-11-06T22:38:38.755Z,1.33
2022-11-06T22:41:06.380Z,1.67
2022-11-06T22:43:33.940Z,1.83
2022-11-06T22:46:01.954Z,1.75
2022-11-06T22:48:30.114Z,2.40
2022-11-06T22:50:57.263Z,1.88
2022-11-06T22:53:24.109Z,1.80
2022-11-06T22:55:54.942Z,1.92
2022-11-06T22:58:22.382Z,2.05
2022-11-06T23:00:49.847Z,2.08
2022-11-06T23:03:17.004Z,2.10
2022-11-06T23:05:44.185Z,2.05
2022-11-06T23:08:11.161Z,3.20
2022-11-06T23:10:38.724Z,2.38
2022-11-06T23:13:05.973Z,2.20
2022-11-06T23:15:32.778Z,2.42
2022-11-06T23:18:00.056Z,2.40
2022-11-06T23:20:27.160Z,1.95
2022-11-06T23:22:54.448Z,2.33
2022-11-06T23:25:21.318Z,2.03
2022-11-06T23:27:49.996Z,2.40
2022-11-06T23:30:16.952Z,2.08
2022-11-06T23:32:43.808Z,2.30
2022-11-06T23:35:13.841Z,2.10
2022-11-06T23:37:41.624Z,2.05
2022-11-06T23:40:09.205Z,2.78
2022-11-06T23:42:35.969Z,1.90
2022-11-06T23:45:21.821Z,2.00
2022-11-06T23:47:49.595Z,1.75
2022-11-06T23:50:16.733Z,2.33
2022-11-06T23:52:44.073Z,1.27
2022-11-06T23:55:11.443Z,1.88
2022-11-06T23:57:38.215Z,2.03
